Time;durP1;ratioP1;P1;durP2;ratioP2;P2;SDS_P1;SDS_P2;PMS_P1;PMS_P2;Temp;Humidity;BMP_temperature;BMP_pressure;BME280_temperature;BME280_humidity;BME280_pressure;Samples;Min_cycle;Max_cycle;Signal;HPM_P1;HPM_P2
2022/09/29 00:00:16;;;;;;;52.20;34.33;;;;;;;;;;4888350;29;20041;-79
2022/09/29 00:02:42;;;;;;;45.90;35.25;;;;;;;;;;4884943;29;20029;-77
2022/09/29 00:05:08;;;;;;;46.13;34.20;;;;;;;;;;4885389;29;20061;-77
2022/09/29 00:07:34;;;;;;;41.70;32.67;;;;;;;;;;4884439;29;20078;-77
2022/09/29 00:10:00;;;;;;;42.42;32.03;;;;;;;;;;4867364;29;20029;-76
2022/09/29 00:12:26;;;;;;;40.30;31.85;;;;;;;;;;4873516;29;20041;-80
2022/09/29 00:14:52;;;;;;;46.92;31.13;;;;;;;;;;4882202;29;20041;-80
2022/09/29 00:17:18;;;;;;;37.63;30.58;;;;;;;;;;4881088;29;20040;-80
2022/09/29 00:19:45;;;;;;;40.17;30.23;;;;;;;;;;4884587;29;20127;-76
2022/09/29 00:22:11;;;;;;;37.22;30.08;;;;;;;;;;4891798;29;20025;-76
2022/09/29 00:24:38;;;;;;;42.42;32.05;;;;;;;;;;4884708;29;20037;-76
2022/09/29 00:27:04;;;;;;;42.03;32.03;;;;;;;;;;4884834;29;20041;-77
2022/09/29 00:29:30;;;;;;;37.03;29.33;;;;;;;;;;4881544;29;20061;-80
2022/09/29 00:31:59;;;;;;;35.17;29.05;;;;;;;;;;4884584;29;20025;-76
2022/09/29 00:34:25;;;;;;;36.28;28.08;;;;;;;;;;4883027;29;20033;-76
2022/09/29 00:36:51;;;;;;;34.30;27.52;;;;;;;;;;4883868;29;20096;-76
2022/09/29 00:39:17;;;;;;;32.78;26.23;;;;;;;;;;4882310;29;20100;-77
2022/09/29 00:41:43;;;;;;;32.17;24.05;;;;;;;;;;4881656;29;20020;-76
2022/09/29 00:44:12;;;;;;;31.27;23.13;;;;;;;;;;4884319;29;20072;-77
2022/09/29 00:46:53;;;;;;;28.02;22.27;;;;;;;;;;4877824;29;20061;-76
2022/09/29 00:49:32;;;;;;;30.02;21.80;;;;;;;;;;4876245;29;20021;-78
2022/09/29 00:52:00;;;;;;;28.35;24.25;;;;;;;;;;4884458;29;20029;-81
2022/09/29 00:54:29;;;;;;;29.23;23.88;;;;;;;;;;4881878;29;20033;-76
2022/09/29 00:56:56;;;;;;;29.15;22.27;;;;;;;;;;4882055;29;20025;-76
2022/09/29 00:59:27;;;;;;;24.83;19.13;;;;;;;;;;4865338;29;20053;-76
2022/09/29 01:01:53;;;;;;;29.30;21.25;;;;;;;;;;4881760;29;20046;-77
2022/09/29 01:04:21;;;;;;;29.17;22.15;;;;;;;;;;4885636;29;20104;-76
2022/09/29 01:06:51;;;;;;;30.23;23.83;;;;;;;;;;4882812;29;20379;-76
2022/09/29 01:09:18;;;;;;;29.90;23.70;;;;;;;;;;4881744;29;20045;-76
2022/09/29 01:11:45;;;;;;;31.13;24.35;;;;;;;;;;4875672;29;20108;-78
2022/09/29 01:14:12;;;;;;;28.02;23.85;;;;;;;;;;4881755;29;20059;-76
2022/09/29 01:16:40;;;;;;;31.33;20.33;;;;;;;;;;4881802;29;20041;-76
2022/09/29 01:19:08;;;;;;;24.95;20.13;;;;;;;;;;4884193;29;20064;-78
2022/09/29 01:21:49;;;;;;;22.70;16.85;;;;;;;;;;4891413;29;20072;-76
2022/09/29 01:24:36;;;;;;;19.42;14.80;;;;;;;;;;4878777;29;20036;-78
2022/09/29 01:27:08;;;;;;;19.45;12.80;;;;;;;;;;4884856;29;20084;-75
2022/09/29 01:29:37;;;;;;;19.10;10.90;;;;;;;;;;4886110;29;20025;-76
2022/09/29 01:32:03;;;;;;;13.13;8.90;;;;;;;;;;4870430;29;20027;-76
2022/09/29 01:34:45;;;;;;;13.93;9.48;;;;;;;;;;4878320;29;20060;-78
2022/09/29 01:37:31;;;;;;;12.05;7.45;;;;;;;;;;4883130;29;20053;-76
2022/09/29 01:40:03;;;;;;;11.45;5.38;;;;;;;;;;4880534;29;20045;-76
2022/09/29 01:42:32;;;;;;;8.68;4.50;;;;;;;;;;4885168;29;20033;-76
2022/09/29 01:45:36;;;;;;;8.77;4.10;;;;;;;;;;4870827;29;20053;-76
2022/09/29 01:48:05;;;;;;;8.40;3.60;;;;;;;;;;4828863;29;20043;-77
2022/09/29 01:50:36;;;;;;;10.52;4.25;;;;;;;;;;4828454;29;20053;-76
2022/09/29 01:53:06;;;;;;;9.23;4.05;;;;;;;;;;4831134;29;20103;-76
2022/09/29 01:55:35;;;;;;;8.95;3.60;;;;;;;;;;4832048;29;20038;-77
2022/09/29 01:58:13;;;;;;;7.38;3.60;;;;;;;;;;4828972;29;20038;-75
2022/09/29 02:00:42;;;;;;;9.60;3.70;;;;;;;;;;4826333;29;20400;-76
2022/09/29 02:03:14;;;;;;;7.93;3.40;;;;;;;;;;4830857;29;20011;-76
2022/09/29 02:05:46;;;;;;;11.05;3.50;;;;;;;;;;4832358;29;20042;-76
2022/09/29 02:08:15;;;;;;;7.78;3.13;;;;;;;;;;4835660;29;20030;-76
2022/09/29 02:11:02;;;;;;;8.10;3.47;;;;;;;;;;4828750;29;20045;-76
2022/09/29 02:13:32;;;;;;;8.55;3.42;;;;;;;;;;4828833;29;20039;-79
2022/09/29 02:15:59;;;;;;;9.10;3.35;;;;;;;;;;4831798;29;20050;-76
2022/09/29 02:18:44;;;;;;;8.82;3.50;;;;;;;;;;4851307;29;20049;-76
2022/09/29 02:21:10;;;;;;;9.85;3.63;;;;;;;;;;4889861;29;20017;-76
2022/09/29 02:23:37;;;;;;;8.68;3.72;;;;;;;;;;4888717;29;20168;-76
2022/09/29 02:26:03;;;;;;;7.15;3.22;;;;;;;;;;4883795;29;20025;-76
2022/09/29 02:28:29;;;;;;;9.32;3.50;;;;;;;;;;4889387;29;20048;-80
2022/09/29 02:30:55;;;;;;;9.88;3.45;;;;;;;;;;4877724;29;20068;-76
2022/09/29 02:33:23;;;;;;;8.88;3.80;;;;;;;;;;4886233;29;20036;-76
2022/09/29 02:36:09;;;;;;;12.38;3.67;;;;;;;;;;4889850;29;20069;-77
2022/09/29 02:38:50;;;;;;;9.80;3.63;;;;;;;;;;4866970;29;20037;-76
2022/09/29 02:41:16;;;;;;;10.68;3.65;;;;;;;;;;4876567;29;20045;-76
2022/09/29 02:43:53;;;;;;;9.75;3.92;;;;;;;;;;4868785;29;20072;-76
2022/09/29 02:46:28;;;;;;;8.10;3.72;;;;;;;;;;4876994;29;20010;-79
2022/09/29 02:49:29;;;;;;;9.52;4.10;;;;;;;;;;4865240;29;20145;-76
2022/09/29 02:52:15;;;;;;;14.85;4.40;;;;;;;;;;4814140;29;20426;-76
2022/09/29 02:54:53;;;;;;;10.85;4.22;;;;;;;;;;4812011;29;20520;-77
2022/09/29 02:57:24;;;;;;;9.02;3.60;;;;;;;;;;4813316;29;20043;-80
2022/09/29 03:00:08;;;;;;;7.63;3.65;;;;;;;;;;4815012;29;20055;-77
2022/09/29 03:02:35;;;;;;;7.97;3.50;;;;;;;;;;4811563;29;20049;-76
2022/09/29 03:05:02;;;;;;;8.20;3.63;;;;;;;;;;4810797;29;20087;-76
2022/09/29 03:07:32;;;;;;;7.03;3.45;;;;;;;;;;4816579;29;20051;-80
2022/09/29 03:09:58;;;;;;;8.60;3.17;;;;;;;;;;4810518;29;20050;-77
2022/09/29 03:12:24;;;;;;;9.68;3.45;;;;;;;;;;4814213;29;20035;-78
2022/09/29 03:14:51;;;;;;;7.15;3.20;;;;;;;;;;4817343;29;20053;-77
2022/09/29 03:17:17;;;;;;;7.60;3.42;;;;;;;;;;4850720;29;20493;-76
2022/09/29 03:19:43;;;;;;;9.55;3.72;;;;;;;;;;4845708;29;20141;-77
2022/09/29 03:22:09;;;;;;;12.35;4.28;;;;;;;;;;4851934;29;20041;-79
2022/09/29 03:24:38;;;;;;;9.07;3.28;;;;;;;;;;4851777;29;20041;-77
2022/09/29 03:27:05;;;;;;;8.27;3.10;;;;;;;;;;4886434;29;20048;-77
2022/09/29 03:29:31;;;;;;;7.53;3.22;;;;;;;;;;4887220;29;20491;-78
2022/09/29 03:31:59;;;;;;;11.57;3.50;;;;;;;;;;4894242;29;20033;-77
2022/09/29 03:34:29;;;;;;;8.70;3.33;;;;;;;;;;4880561;29;20041;-78
2022/09/29 03:36:56;;;;;;;7.97;3.38;;;;;;;;;;4869683;29;20033;-76
2022/09/29 03:39:22;;;;;;;12.85;3.53;;;;;;;;;;4885302;29;20043;-76
2022/09/29 03:41:49;;;;;;;8.90;3.58;;;;;;;;;;4867730;29;20025;-76
2022/09/29 03:44:15;;;;;;;11.00;2.97;;;;;;;;;;4873307;29;20091;-76
2022/09/29 03:46:41;;;;;;;8.05;3.40;;;;;;;;;;4887751;29;20033;-76
2022/09/29 03:49:14;;;;;;;12.88;4.22;;;;;;;;;;4885339;29;20036;-76
2022/09/29 03:51:41;;;;;;;9.48;3.42;;;;;;;;;;4883734;29;20026;-76
2022/09/29 03:54:07;;;;;;;8.20;3.50;;;;;;;;;;4876600;29;20044;-77
2022/09/29 03:56:34;;;;;;;8.77;2.90;;;;;;;;;;4889908;29;20040;-76
2022/09/29 03:59:00;;;;;;;7.65;3.63;;;;;;;;;;4869754;29;20132;-78
2022/09/29 04:01:27;;;;;;;10.25;4.20;;;;;;;;;;4885302;29;20029;-79
2022/09/29 04:03:53;;;;;;;12.40;3.92;;;;;;;;;;4885445;29;20041;-76
2022/09/29 04:06:19;;;;;;;6.90;3.08;;;;;;;;;;4885869;29;20029;-76
2022/09/29 04:08:48;;;;;;;9.02;3.40;;;;;;;;;;4877671;29;20029;-77
2022/09/29 04:11:14;;;;;;;7.82;2.95;;;;;;;;;;4870690;29;20503;-76
2022/09/29 04:13:40;;;;;;;10.95;3.08;;;;;;;;;;4887591;29;20027;-76
2022/09/29 04:16:06;;;;;;;8.45;3.55;;;;;;;;;;4874505;29;20033;-76
2022/09/29 04:18:32;;;;;;;7.82;3.05;;;;;;;;;;4883910;29;20049;-77
2022/09/29 04:21:02;;;;;;;9.52;3.55;;;;;;;;;;4884231;29;20032;-76
2022/09/29 04:23:29;;;;;;;10.70;3.63;;;;;;;;;;4869100;29;20040;-77
2022/09/29 04:25:55;;;;;;;10.95;3.30;;;;;;;;;;4868334;29;20081;-76
2022/09/29 04:28:21;;;;;;;15.20;3.92;;;;;;;;;;4885419;29;20029;-77
2022/09/29 04:30:47;;;;;;;7.78;2.95;;;;;;;;;;4868630;29;20123;-76
2022/09/29 04:33:13;;;;;;;10.05;3.47;;;;;;;;;;4887074;29;20081;-77
2022/09/29 04:35:40;;;;;;;10.93;3.50;;;;;;;;;;4886642;29;20097;-76
2022/09/29 04:38:07;;;;;;;7.93;3.05;;;;;;;;;;4885434;29;20025;-76
2022/09/29 04:40:52;;;;;;;8.73;3.60;;;;;;;;;;4867512;29;20053;-76
2022/09/29 04:43:19;;;;;;;11.23;3.63;;;;;;;;;;4864861;29;20042;-77
2022/09/29 04:45:45;;;;;;;12.20;5.63;;;;;;;;;;4865345;29;20049;-77
2022/09/29 04:48:13;;;;;;;11.85;4.65;;;;;;;;;;4855250;29;20030;-77
2022/09/29 04:50:39;;;;;;;10.65;3.85;;;;;;;;;;4853241;29;20052;-77
2022/09/29 04:53:06;;;;;;;12.73;3.67;;;;;;;;;;4868031;29;20635;-77
2022/09/29 04:55:34;;;;;;;12.07;3.33;;;;;;;;;;4869237;29;20065;-78
2022/09/29 04:58:00;;;;;;;10.35;3.03;;;;;;;;;;4856327;29;20042;-77
2022/09/29 05:00:26;;;;;;;10.50;3.67;;;;;;;;;;4868796;29;20073;-77
2022/09/29 05:02:52;;;;;;;10.07;3.60;;;;;;;;;;4850940;29;20040;-77
2022/09/29 05:05:18;;;;;;;13.57;3.63;;;;;;;;;;4864126;29;20058;-77
2022/09/29 05:07:44;;;;;;;13.23;2.80;;;;;;;;;;4873510;29;20077;-77
2022/09/29 05:10:11;;;;;;;11.50;3.38;;;;;;;;;;4856658;29;20026;-76
2022/09/29 05:12:37;;;;;;;10.50;3.33;;;;;;;;;;4890721;29;20040;-77
2022/09/29 05:15:06;;;;;;;11.40;3.58;;;;;;;;;;4872404;29;20036;-77
2022/09/29 05:17:33;;;;;;;13.02;3.50;;;;;;;;;;4892556;29;20037;-79
2022/09/29 05:20:04;;;;;;;14.02;3.28;;;;;;;;;;4880988;29;20063;-79
2022/09/29 05:22:37;;;;;;;7.00;2.60;;;;;;;;;;4874919;29;20037;-78
2022/09/29 05:27:45;;;;;;;11.90;3.85;;;;;;;;;;5004761;23;20502;-78
2022/09/29 05:30:35;;;;;;;7.72;3.17;;;;;;;;;;4865840;29;20045;-79
2022/09/29 05:33:11;;;;;;;11.57;3.22;;;;;;;;;;4868257;29;20026;-79
2022/09/29 05:35:47;;;;;;;10.00;3.40;;;;;;;;;;4877474;29;20037;-79
2022/09/29 05:38:15;;;;;;;14.40;6.38;;;;;;;;;;4862487;29;20173;-77
2022/09/29 05:40:41;;;;;;;8.18;3.03;;;;;;;;;;4869401;29;20033;-78
2022/09/29 05:43:07;;;;;;;12.65;6.47;;;;;;;;;;4864495;29;20040;-78
2022/09/29 05:45:33;;;;;;;12.35;4.60;;;;;;;;;;4863628;29;20037;-80
2022/09/29 05:47:59;;;;;;;12.13;3.67;;;;;;;;;;4849016;29;20543;-78
2022/09/29 05:50:25;;;;;;;10.95;3.92;;;;;;;;;;4859361;29;20041;-79
2022/09/29 05:52:51;;;;;;;8.20;3.30;;;;;;;;;;4852106;29;20020;-77
2022/09/29 05:55:18;;;;;;;8.52;3.00;;;;;;;;;;4858512;29;20045;-77
2022/09/29 05:57:48;;;;;;;11.57;3.60;;;;;;;;;;4861738;29;20108;-77
2022/09/29 06:00:14;;;;;;;12.43;3.35;;;;;;;;;;4873460;29;20131;-77
2022/09/29 06:02:40;;;;;;;8.18;3.40;;;;;;;;;;4846808;29;20041;-78
2022/09/29 06:05:07;;;;;;;12.25;3.42;;;;;;;;;;4867949;29;20084;-77
2022/09/29 06:07:38;;;;;;;12.15;3.33;;;;;;;;;;4878704;29;20547;-76
2022/09/29 06:10:04;;;;;;;16.17;4.70;;;;;;;;;;4883574;29;20057;-76
2022/09/29 06:12:51;;;;;;;14.13;5.90;;;;;;;;;;4879922;29;20062;-73
2022/09/29 06:15:26;;;;;;;10.82;3.35;;;;;;;;;;4894855;29;20163;-76
2022/09/29 06:17:59;;;;;;;11.70;3.10;;;;;;;;;;4899948;29;20640;-74
2022/09/29 06:20:46;;;;;;;10.25;3.47;;;;;;;;;;4893967;29;20045;-74
2022/09/29 06:23:16;;;;;;;8.10;3.15;;;;;;;;;;4897463;29;20057;-78
2022/09/29 06:25:42;;;;;;;8.70;2.92;;;;;;;;;;4885878;29;20037;-75
2022/09/29 06:28:13;;;;;;;10.07;3.42;;;;;;;;;;4893294;29;20173;-74
2022/09/29 06:30:39;;;;;;;9.43;3.47;;;;;;;;;;4894978;29;20091;-73
2022/09/29 06:33:05;;;;;;;10.00;3.85;;;;;;;;;;4888699;29;20044;-72
2022/09/29 06:38:26;;;;;;;7.32;3.47;;;;;;;;;;4901823;29;20145;-75
2022/09/29 06:40:53;;;;;;;8.98;3.00;;;;;;;;;;4888869;29;20052;-75
2022/09/29 06:43:19;;;;;;;9.15;2.80;;;;;;;;;;4897311;29;20144;-73
2022/09/29 06:45:45;;;;;;;9.20;3.08;;;;;;;;;;4887729;29;20029;-75
2022/09/29 06:48:11;;;;;;;6.53;2.90;;;;;;;;;;4921276;29;20033;-77
2022/09/29 06:50:42;;;;;;;6.07;2.85;;;;;;;;;;4915608;29;20085;-80
2022/09/29 06:53:09;;;;;;;8.40;3.15;;;;;;;;;;4916902;29;20028;-73
2022/09/29 06:55:35;;;;;;;9.13;2.92;;;;;;;;;;4920301;29;20032;-74
2022/09/29 06:58:01;;;;;;;10.63;4.20;;;;;;;;;;4901077;29;20092;-73
2022/09/29 07:00:27;;;;;;;8.10;3.15;;;;;;;;;;4914156;29;20076;-75
2022/09/29 07:02:53;;;;;;;10.55;3.10;;;;;;;;;;4921088;29;20036;-77
2022/09/29 07:05:23;;;;;;;10.57;3.10;;;;;;;;;;4922148;29;20044;-79
2022/09/29 07:07:55;;;;;;;8.30;3.00;;;;;;;;;;4915800;29;20028;-74
2022/09/29 07:10:21;;;;;;;9.27;3.28;;;;;;;;;;4929902;29;20025;-74
2022/09/29 07:13:08;;;;;;;8.82;3.00;;;;;;;;;;4905546;29;20475;-73
2022/09/29 07:15:38;;;;;;;9.35;2.80;;;;;;;;;;4921418;29;20025;-74
2022/09/29 07:18:05;;;;;;;10.88;2.90;;;;;;;;;;4902340;29;20059;-82
2022/09/29 07:20:32;;;;;;;11.93;3.30;;;;;;;;;;4921474;29;20045;-76
2022/09/29 07:22:58;;;;;;;11.02;3.40;;;;;;;;;;4917327;29;20024;-74
2022/09/29 07:25:24;;;;;;;12.27;4.28;;;;;;;;;;4920708;29;20036;-73
2022/09/29 07:27:51;;;;;;;15.05;3.90;;;;;;;;;;4914273;29;20041;-74
2022/09/29 07:30:18;;;;;;;11.60;3.67;;;;;;;;;;4921386;29;20035;-82
2022/09/29 07:32:44;;;;;;;10.13;3.75;;;;;;;;;;4914524;29;20048;-73
2022/09/29 07:35:10;;;;;;;6.68;3.15;;;;;;;;;;4913566;29;20057;-75
2022/09/29 07:37:36;;;;;;;13.85;4.75;;;;;;;;;;4905583;29;20051;-73
2022/09/29 07:40:02;;;;;;;7.45;3.30;;;;;;;;;;4918714;29;20025;-85
2022/09/29 07:42:28;;;;;;;7.70;3.50;;;;;;;;;;4899274;29;20029;-72
2022/09/29 07:44:57;;;;;;;6.63;3.20;;;;;;;;;;4912624;29;20037;-76
2022/09/29 07:47:24;;;;;;;8.45;3.22;;;;;;;;;;4920859;29;20013;-82
2022/09/29 07:49:50;;;;;;;8.05;3.38;;;;;;;;;;4918988;29;20043;-77
2022/09/29 07:52:17;;;;;;;8.65;3.22;;;;;;;;;;4920543;29;20020;-80
2022/09/29 07:54:43;;;;;;;8.18;3.28;;;;;;;;;;4923889;29;20028;-79
2022/09/29 07:57:09;;;;;;;6.90;3.08;;;;;;;;;;4908145;29;20044;-73
2022/09/29 07:59:35;;;;;;;7.72;3.30;;;;;;;;;;4917691;29;20045;-76
2022/09/29 08:02:01;;;;;;;10.85;3.97;;;;;;;;;;4914718;29;20044;-73
2022/09/29 08:04:32;;;;;;;8.73;3.45;;;;;;;;;;4920061;29;20033;-78
2022/09/29 08:07:05;;;;;;;10.77;4.25;;;;;;;;;;4920106;29;20048;-76
2022/09/29 08:09:54;;;;;;;10.60;4.35;;;;;;;;;;4922654;29;20025;-74
2022/09/29 08:12:26;;;;;;;9.43;3.40;;;;;;;;;;4872366;29;20048;-75
2022/09/29 08:14:53;;;;;;;7.80;3.00;;;;;;;;;;4923379;29;20023;-75
2022/09/29 08:17:20;;;;;;;8.65;3.60;;;;;;;;;;4924024;29;20040;-74
2022/09/29 08:19:47;;;;;;;8.85;3.30;;;;;;;;;;4907738;29;20040;-73
2022/09/29 08:22:13;;;;;;;6.28;2.70;;;;;;;;;;4917718;29;20013;-77
2022/09/29 08:24:39;;;;;;;8.15;3.25;;;;;;;;;;4923161;29;20016;-86
2022/09/29 08:27:12;;;;;;;8.73;2.80;;;;;;;;;;4923520;29;20041;-86
2022/09/29 08:29:53;;;;;;;8.32;3.38;;;;;;;;;;4903589;29;20036;-83
2022/09/29 08:32:19;;;;;;;7.15;3.10;;;;;;;;;;4922678;29;20099;-82
2022/09/29 08:34:48;;;;;;;9.27;3.10;;;;;;;;;;4922727;29;20031;-75
2022/09/29 08:37:27;;;;;;;8.10;3.42;;;;;;;;;;4922305;29;20037;-79
2022/09/29 08:39:54;;;;;;;7.30;3.08;;;;;;;;;;4921981;29;20049;-84
2022/09/29 08:42:29;;;;;;;7.47;3.30;;;;;;;;;;4922083;29;20028;-76
2022/09/29 08:45:00;;;;;;;11.93;4.65;;;;;;;;;;4923001;28;20075;-76
2022/09/29 08:47:29;;;;;;;9.55;3.22;;;;;;;;;;4904080;29;20024;-76
2022/09/29 08:49:57;;;;;;;11.48;3.45;;;;;;;;;;4911068;29;20059;-76
2022/09/29 08:52:30;;;;;;;10.05;3.00;;;;;;;;;;4917043;29;20088;-83
2022/09/29 08:55:02;;;;;;;7.55;3.22;;;;;;;;;;4919718;29;20454;-79
2022/09/29 08:57:29;;;;;;;7.82;3.70;;;;;;;;;;4918375;29;20115;-84
2022/09/29 08:59:59;;;;;;;7.05;3.40;;;;;;;;;;4915464;29;20056;-84
2022/09/29 09:02:28;;;;;;;8.60;3.20;;;;;;;;;;4921353;29;20009;-77
2022/09/29 09:05:00;;;;;;;11.50;3.80;;;;;;;;;;4922498;29;20065;-76
2022/09/29 09:07:50;;;;;;;6.40;3.15;;;;;;;;;;4908633;29;20017;-73
2022/09/29 09:10:36;;;;;;;10.10;5.07;;;;;;;;;;4910736;29;20035;-73
2022/09/29 09:13:02;;;;;;;8.10;3.50;;;;;;;;;;4921367;29;20048;-75
2022/09/29 09:15:47;;;;;;;7.13;3.10;;;;;;;;;;4911096;29;20048;-74
2022/09/29 09:18:32;;;;;;;10.70;3.50;;;;;;;;;;4930647;28;20113;-73
2022/09/29 09:21:08;;;;;;;13.02;3.65;;;;;;;;;;4911052;29;20057;-74
2022/09/29 09:23:37;;;;;;;9.85;2.60;;;;;;;;;;4914810;29;20021;-83
2022/09/29 09:26:04;;;;;;;5.30;2.70;;;;;;;;;;4905019;29;20049;-80
2022/09/29 09:28:34;;;;;;;19.08;4.10;;;;;;;;;;4920552;29;20084;-78
2022/09/29 09:31:05;;;;;;;6.60;2.50;;;;;;;;;;4918853;29;20029;-75
2022/09/29 09:33:43;;;;;;;7.97;2.83;;;;;;;;;;4898132;29;20021;-79
2022/09/29 09:36:49;;;;;;;7.60;3.00;;;;;;;;;;4915304;29;20042;-75
2022/09/29 09:39:26;;;;;;;12.23;3.75;;;;;;;;;;4849832;29;20042;-79
2022/09/29 09:41:55;;;;;;;6.38;2.67;;;;;;;;;;4867828;29;20525;-80
2022/09/29 09:44:50;;;;;;;7.55;3.17;;;;;;;;;;4861739;29;20038;-83
2022/09/29 09:47:17;;;;;;;7.57;2.53;;;;;;;;;;4867224;29;20095;-75
2022/09/29 09:49:45;;;;;;;6.60;2.85;;;;;;;;;;4859681;29;20025;-74
2022/09/29 09:52:16;;;;;;;5.82;2.42;;;;;;;;;;4852785;29;20038;-79
2022/09/29 09:54:46;;;;;;;5.68;2.70;;;;;;;;;;4837058;29;20034;-80
2022/09/29 09:57:31;;;;;;;7.47;2.90;;;;;;;;;;4841318;29;20129;-81
2022/09/29 10:00:07;;;;;;;7.32;2.65;;;;;;;;;;4837140;29;20113;-78
2022/09/29 10:02:36;;;;;;;9.48;2.85;;;;;;;;;;4850429;29;20097;-80
2022/09/29 10:05:03;;;;;;;8.05;3.22;;;;;;;;;;4855577;29;20034;-79
2022/09/29 10:07:30;;;;;;;12.05;3.75;;;;;;;;;;4832499;29;20033;-79
2022/09/29 10:09:57;;;;;;;7.28;2.80;;;;;;;;;;4850871;29;20041;-78
2022/09/29 10:12:24;;;;;;;14.55;3.80;;;;;;;;;;4835843;29;20034;-79
2022/09/29 10:14:50;;;;;;;6.70;2.90;;;;;;;;;;4835298;29;20066;-78
2022/09/29 10:17:21;;;;;;;24.98;4.88;;;;;;;;;;4918632;29;20041;-80
2022/09/29 10:19:58;;;;;;;16.92;3.75;;;;;;;;;;4903985;29;20025;-79
2022/09/29 10:22:26;;;;;;;19.50;4.45;;;;;;;;;;4902517;29;20076;-79
2022/09/29 10:25:15;;;;;;;9.93;2.80;;;;;;;;;;4905748;29;20109;-79
2022/09/29 10:27:43;;;;;;;10.57;3.40;;;;;;;;;;4836860;29;20054;-79
2022/09/29 10:30:19;;;;;;;112.82;11.50;;;;;;;;;;4837487;29;20497;-78
2022/09/29 10:32:46;;;;;;;10.23;3.05;;;;;;;;;;4837159;29;20082;-78
2022/09/29 10:35:15;;;;;;;11.40;3.95;;;;;;;;;;4818335;29;20083;-78
2022/09/29 10:37:42;;;;;;;22.23;4.50;;;;;;;;;;4835577;29;20038;-79
2022/09/29 10:40:11;;;;;;;12.35;3.70;;;;;;;;;;4837388;29;20046;-79
2022/09/29 10:42:38;;;;;;;64.35;7.50;;;;;;;;;;4837629;29;20031;-79
2022/09/29 10:45:20;;;;;;;21.60;3.85;;;;;;;;;;4816706;29;20148;-79
2022/09/29 10:47:59;;;;;;;11.40;3.40;;;;;;;;;;4832268;29;20033;-79
2022/09/29 10:50:30;;;;;;;15.20;3.70;;;;;;;;;;4839075;29;20089;-80
2022/09/29 10:53:00;;;;;;;37.25;5.85;;;;;;;;;;4818198;29;20086;-79
2022/09/29 10:55:31;;;;;;;21.50;4.75;;;;;;;;;;4832478;29;20046;-84
2022/09/29 10:57:58;;;;;;;12.05;3.65;;;;;;;;;;4835215;29;20117;-78
2022/09/29 11:00:29;;;;;;;16.23;3.67;;;;;;;;;;4805725;29;20067;-79
2022/09/29 11:03:03;;;;;;;25.20;6.82;;;;;;;;;;4834483;29;20022;-78
2022/09/29 11:05:29;;;;;;;21.33;4.53;;;;;;;;;;4883349;29;20563;-84
2022/09/29 11:07:55;;;;;;;9.63;2.90;;;;;;;;;;4893757;29;20005;-78
2022/09/29 11:10:32;;;;;;;13.77;3.78;;;;;;;;;;4909051;29;20032;-80
2022/09/29 11:12:59;;;;;;;9.82;3.13;;;;;;;;;;4889800;29;20028;-79
2022/09/29 11:15:28;;;;;;;15.90;3.50;;;;;;;;;;4910870;29;20091;-79
2022/09/29 11:17:54;;;;;;;9.63;3.30;;;;;;;;;;4892144;29;20041;-78
2022/09/29 11:20:22;;;;;;;16.42;3.58;;;;;;;;;;4899620;29;20079;-79
2022/09/29 11:22:49;;;;;;;12.65;2.88;;;;;;;;;;4894741;29;20522;-79
2022/09/29 11:25:15;;;;;;;26.75;3.35;;;;;;;;;;4891616;29;20035;-78
2022/09/29 11:27:42;;;;;;;23.23;4.30;;;;;;;;;;4907526;29;20131;-79
2022/09/29 11:30:26;;;;;;;30.00;5.57;;;;;;;;;;4893731;29;20051;-79
2022/09/29 11:33:09;;;;;;;22.25;4.05;;;;;;;;;;4893618;29;20119;-80
2022/09/29 11:35:47;;;;;;;24.00;3.60;;;;;;;;;;4893630;29;20041;-78
2022/09/29 11:38:26;;;;;;;8.23;3.08;;;;;;;;;;4893697;29;20044;-79
2022/09/29 11:40:53;;;;;;;10.57;2.83;;;;;;;;;;4909307;29;20043;-81
2022/09/29 11:43:29;;;;;;;11.65;2.97;;;;;;;;;;4911834;29;20029;-79
2022/09/29 11:45:58;;;;;;;8.57;3.22;;;;;;;;;;4896476;29;20032;-81
2022/09/29 11:48:40;;;;;;;10.02;3.15;;;;;;;;;;4903777;29;20029;-79
2022/09/29 11:51:15;;;;;;;8.52;2.50;;;;;;;;;;4884766;29;20054;-82
2022/09/29 11:53:50;;;;;;;10.25;2.80;;;;;;;;;;4905577;29;20033;-81
2022/09/29 11:56:23;;;;;;;7.13;2.92;;;;;;;;;;4908849;29;20625;-78
2022/09/29 11:58:50;;;;;;;10.02;3.55;;;;;;;;;;4891727;29;20051;-82
2022/09/29 12:01:30;;;;;;;7.50;3.60;;;;;;;;;;4884726;29;20055;-79
2022/09/29 12:04:14;;;;;;;4.53;2.28;;;;;;;;;;4906863;29;20096;-77
2022/09/29 12:06:40;;;;;;;4.60;2.20;;;;;;;;;;4904118;29;20032;-78
2022/09/29 12:09:32;;;;;;;5.07;2.20;;;;;;;;;;4904181;29;20037;-78
2022/09/29 12:12:16;;;;;;;5.80;2.50;;;;;;;;;;4844885;29;20042;-77
2022/09/29 12:14:59;;;;;;;4.03;2.20;;;;;;;;;;4838540;29;20034;-82
2022/09/29 12:17:30;;;;;;;11.13;2.65;;;;;;;;;;4848212;29;20062;-78
2022/09/29 12:20:16;;;;;;;5.80;2.30;;;;;;;;;;4844747;29;20441;-81
2022/09/29 12:22:45;;;;;;;6.47;2.70;;;;;;;;;;4807603;29;20144;-77
2022/09/29 12:25:15;;;;;;;8.10;2.40;;;;;;;;;;4801071;29;20066;-80
2022/09/29 12:27:43;;;;;;;4.93;2.25;;;;;;;;;;4810705;29;20057;-78
2022/09/29 12:30:20;;;;;;;4.35;2.00;;;;;;;;;;4790966;29;20200;-78
2022/09/29 12:32:50;;;;;;;3.33;2.00;;;;;;;;;;4814730;29;20054;-79
2022/09/29 12:35:27;;;;;;;5.20;2.13;;;;;;;;;;4811762;29;20114;-80
2022/09/29 12:38:00;;;;;;;10.25;2.53;;;;;;;;;;4817196;29;20039;-79
2022/09/29 12:40:38;;;;;;;5.28;1.98;;;;;;;;;;4814282;29;20050;-81
2022/09/29 12:43:11;;;;;;;3.28;1.80;;;;;;;;;;4808477;29;20062;-73
2022/09/29 12:45:37;;;;;;;5.93;2.15;;;;;;;;;;4813927;29;20035;-75
2022/09/29 12:48:15;;;;;;;9.60;2.60;;;;;;;;;;4816701;29;20041;-74
2022/09/29 12:50:49;;;;;;;6.95;1.95;;;;;;;;;;4871066;29;20064;-73
2022/09/29 12:53:19;;;;;;;7.57;2.58;;;;;;;;;;4857521;29;20096;-75
2022/09/29 12:55:49;;;;;;;8.98;2.22;;;;;;;;;;4878352;29;20042;-73
2022/09/29 12:58:23;;;;;;;7.35;2.28;;;;;;;;;;4880802;29;20080;-74
2022/09/29 13:00:55;;;;;;;8.57;2.42;;;;;;;;;;4912286;29;20053;-75
2022/09/29 13:03:31;;;;;;;7.50;2.33;;;;;;;;;;4911760;29;20080;-80
2022/09/29 13:06:10;;;;;;;11.55;3.17;;;;;;;;;;4914164;29;20028;-74
2022/09/29 13:08:43;;;;;;;6.45;2.40;;;;;;;;;;4913264;29;20025;-77
2022/09/29 13:11:28;;;;;;;6.75;3.10;;;;;;;;;;4907414;29;20105;-75
2022/09/29 13:14:03;;;;;;;7.00;2.80;;;;;;;;;;4899007;29;20029;-78
2022/09/29 13:16:48;;;;;;;17.02;5.00;;;;;;;;;;4905072;29;20043;-76
2022/09/29 13:19:17;;;;;;;5.57;2.50;;;;;;;;;;4901734;29;20048;-74
2022/09/29 13:22:02;;;;;;;6.85;2.55;;;;;;;;;;4898989;29;20029;-81
2022/09/29 13:24:55;;;;;;;11.15;2.42;;;;;;;;;;4901390;29;20033;-77
2022/09/29 13:27:31;;;;;;;5.80;2.70;;;;;;;;;;4873315;29;20131;-75
2022/09/29 13:30:03;;;;;;;5.22;2.70;;;;;;;;;;4876372;29;20029;-79
2022/09/29 13:32:36;;;;;;;8.25;3.30;;;;;;;;;;4879708;29;20041;-80
2022/09/29 13:35:02;;;;;;;8.45;3.55;;;;;;;;;;4883217;29;20047;-74
2022/09/29 13:37:43;;;;;;;12.43;5.70;;;;;;;;;;4868574;29;20096;-80
2022/09/29 13:40:16;;;;;;;11.15;5.47;;;;;;;;;;4891175;29;20042;-74
2022/09/29 13:42:43;;;;;;;8.93;4.22;;;;;;;;;;4881053;29;20045;-74
2022/09/29 13:45:24;;;;;;;7.63;3.20;;;;;;;;;;4873851;29;20040;-81
2022/09/29 13:47:51;;;;;;;6.25;2.72;;;;;;;;;;4891155;29;20048;-77
2022/09/29 13:50:35;;;;;;;3.63;2.08;;;;;;;;;;4889887;29;20097;-74
2022/09/29 13:53:25;;;;;;;5.57;2.20;;;;;;;;;;4882559;29;20040;-79
2022/09/29 13:55:53;;;;;;;6.97;2.70;;;;;;;;;;4895209;29;20119;-72
2022/09/29 13:58:27;;;;;;;5.57;2.47;;;;;;;;;;4898419;29;20093;-75
2022/09/29 14:00:53;;;;;;;;;;;;;;;;;;4886904;29;20120;-74
2022/09/29 14:03:32;;;;;;;5.93;3.03;;;;;;;;;;4896115;29;19910;-76
2022/09/29 14:06:07;;;;;;;8.75;3.10;;;;;;;;;;4926572;29;20452;-82
2022/09/29 14:08:39;;;;;;;7.30;2.83;;;;;;;;;;4925805;29;20067;-73
2022/09/29 14:11:21;;;;;;;5.90;2.40;;;;;;;;;;4922481;29;20043;-74
2022/09/29 14:13:47;;;;;;;7.60;2.50;;;;;;;;;;4918638;29;20486;-75
2022/09/29 14:16:32;;;;;;;6.47;3.10;;;;;;;;;;4924307;29;20047;-75
2022/09/29 14:19:02;;;;;;;3.90;2.33;;;;;;;;;;4926627;29;20028;-80
2022/09/29 14:21:46;;;;;;;5.95;2.78;;;;;;;;;;4918678;29;20032;-82
2022/09/29 14:24:31;;;;;;;9.20;2.60;;;;;;;;;;4922459;29;20069;-75
2022/09/29 14:27:17;;;;;;;12.40;3.10;;;;;;;;;;4919494;29;20048;-76
2022/09/29 14:29:48;;;;;;;6.20;2.80;;;;;;;;;;4913799;29;20046;-77
2022/09/29 14:32:17;;;;;;;6.80;2.78;;;;;;;;;;4918143;29;20032;-80
2022/09/29 14:34:43;;;;;;;7.20;2.47;;;;;;;;;;4934260;29;20154;-74
2022/09/29 14:37:18;;;;;;;7.45;2.50;;;;;;;;;;4942331;29;20032;-75
2022/09/29 14:40:26;;;;;;;4.05;2.20;;;;;;;;;;4931172;29;20044;-79
2022/09/29 14:42:31;;;;;;;7.28;2.70;;;;;;;;;;4926171;29;20033;-74
2022/09/29 14:53:45;;;;;;;10.90;2.65;;;;;;;;;;4926959;29;20043;-80
2022/09/29 14:56:20;;;;;;;7.22;2.92;;;;;;;;;;4909304;29;20031;-74
2022/09/29 14:59:13;;;;;;;7.00;2.70;;;;;;;;;;4918045;29;20035;-79
2022/09/29 15:01:42;;;;;;;8.82;3.08;;;;;;;;;;4899419;29;20048;-73
2022/09/29 15:04:14;;;;;;;7.93;3.00;;;;;;;;;;4917757;29;20083;-78
2022/09/29 15:06:50;;;;;;;8.85;2.97;;;;;;;;;;4921766;29;20034;-75
2022/09/29 15:09:17;;;;;;;6.18;2.30;;;;;;;;;;4920311;29;20052;-74
2022/09/29 15:11:45;;;;;;;8.82;2.70;;;;;;;;;;4918009;29;20042;-76
2022/09/29 15:14:20;;;;;;;9.57;2.58;;;;;;;;;;4920066;29;20052;-74